Time,TemperatureF,DewpointF,PressureIn,WindDirection,WindDirectionDegrees,WindSpeedMPH,WindSpeedGustMPH,Humidity,HourlyPrecipIn,Conditions,Clouds,dailyrainin,SolarRadiationWatts/m^2,SoftwareType,DateUTC
2013-07-04 00:08:00,77.2,73.0,30.07,SE,130,0.0,1.0,86,0.00,,,0.00,0,weatherlink.com 1.10,2013-07-04 04:08:00,
2013-07-04 00:24:00,77.0,73.0,30.07,ENE,57,0.0,3.0,87,0.00,,,0.00,0,weatherlink.com 1.10,2013-07-04 04:24:00,
2013-07-04 00:39:00,77.0,73.0,30.07,NE,34,2.0,4.0,87,0.00,,,0.00,0,weatherlink.com 1.10,2013-07-04 04:39:00,
2013-07-04 00:54:00,76.8,73.0,30.07,SSE,167,0.0,2.0,87,0.00,,,0.00,0,weatherlink.com 1.10,2013-07-04 04:54:00,
2013-07-04 01:09:00,76.8,73.0,30.07,SE,131,0.0,4.0,87,0.00,,,0.00,0,weatherlink.com 1.10,2013-07-04 05:09:00,
2013-07-04 01:24:00,76.7,73.0,30.06,SE,131,0.0,2.0,87,0.00,,,0.00,0,weatherlink.com 1.10,2013-07-04 05:24:00,
2013-07-04 01:38:00,76.3,72.0,30.06,SE,128,0.0,3.0,87,0.00,,,0.00,0,weatherlink.com 1.10,2013-07-04 05:38:00,
2013-07-04 01:54:00,76.3,72.0,30.06,SE,126,2.0,5.0,87,0.00,,,0.00,0,weatherlink.com 1.10,2013-07-04 05:54:00,
2013-07-04 02:10:00,76.1,72.0,30.05,SE,126,0.0,2.0,88,0.00,,,0.00,0,weatherlink.com 1.10,2013-07-04 06:10:00,
2013-07-04 02:24:00,76.0,72.0,30.05,SE,125,0.0,4.0,88,0.00,,,0.00,0,weatherlink.com 1.10,2013-07-04 06:24:00,
2013-07-04 02:40:00,75.8,72.0,30.04,SE,125,0.0,2.0,88,0.00,,,0.00,0,weatherlink.com 1.10,2013-07-04 06:40:00,
2013-07-04 02:55:00,75.8,72.0,30.04,SE,125,0.0,1.0,89,0.00,,,0.00,0,weatherlink.com 1.10,2013-07-04 06:55:00,
2013-07-04 03:10:00,75.6,72.0,30.04,ESE,122,0.0,3.0,89,0.00,,,0.00,0,weatherlink.com 1.10,2013-07-04 07:10:00,
2013-07-04 03:25:00,75.6,72.0,30.04,SE,124,0.0,2.0,89,0.00,,,0.00,0,weatherlink.com 1.10,2013-07-04 07:25:00,
2013-07-04 03:39:00,75.4,72.0,30.03,ESE,121,0.0,2.0,89,0.00,,,0.00,0,weatherlink.com 1.10,2013-07-04 07:39:00,
2013-07-04 03:55:00,75.1,72.0,30.03,ESE,121,2.0,2.0,89,0.00,,,0.00,0,weatherlink.com 1.10,2013-07-04 07:55:00,
2013-07-04 04:10:00,74.9,72.0,30.04,ESE,121,0.0,1.0,89,0.00,,,0.00,0,weatherlink.com 1.10,2013-07-04 08:10:00,
2013-07-04 04:25:00,74.9,72.0,30.04,ESE,121,0.0,1.0,90,0.00,,,0.00,0,weatherlink.com 1.10,2013-07-04 08:25:00,
2013-07-04 04:41:00,74.7,72.0,30.04,ESE,121,0.0,3.0,90,0.00,,,0.00,0,weatherlink.com 1.10,2013-07-04 08:41:00,
2013-07-04 04:55:00,74.7,72.0,30.03,ESE,121,0.0,2.0,90,0.00,,,0.00,0,weatherlink.com 1.10,2013-07-04 08:55:00,
2013-07-04 05:11:00,74.6,72.0,30.03,ESE,121,0.0,2.0,90,0.00,,,0.00,0,weatherlink.com 1.10,2013-07-04 09:11:00,
2013-07-04 05:25:00,74.6,72.0,30.04,ESE,121,0.0,2.0,91,0.00,,,0.00,0,weatherlink.com 1.10,2013-07-04 09:25:00,
2013-07-04 05:41:00,74.6,72.0,30.04,ESE,121,0.0,1.0,91,0.00,,,0.00,0,weatherlink.com 1.10,2013-07-04 09:41:00,
2013-07-04 05:55:00,74.7,72.0,30.03,ESE,121,3.0,3.0,91,0.00,,,0.00,0,weatherlink.com 1.10,2013-07-04 09:55:00,
2013-07-04 06:11:00,74.7,72.0,30.04,ESE,113,0.0,3.0,92,0.00,,,0.00,0,weatherlink.com 1.10,2013-07-04 10:11:00,
2013-07-04 06:27:00,74.7,72.0,30.04,ESE,113,0.0,1.0,92,0.00,,,0.00,0,weatherlink.com 1.10,2013-07-04 10:27:00,
2013-07-04 06:41:00,74.7,72.0,30.04,ESE,113,0.0,1.0,92,0.00,,,0.00,12,weatherlink.com 1.10,2013-07-04 10:41:00,
2013-07-04 06:56:00,74.7,72.0,30.04,ESE,113,0.0,4.0,92,0.00,,,0.00,28,weatherlink.com 1.10,2013-07-04 10:56:00,
2013-07-04 07:11:00,74.9,73.0,30.04,ESE,119,0.0,5.0,92,0.00,,,0.00,44,weatherlink.com 1.10,2013-07-04 11:11:00,
2013-07-04 07:28:00,75.3,73.0,30.05,ESE,119,2.0,2.0,93,0.00,,,0.00,56,weatherlink.com 1.10,2013-07-04 11:28:00,
2013-07-04 07:41:00,75.6,74.0,30.05,SE,126,0.0,3.0,93,0.00,,,0.00,63,weatherlink.com 1.10,2013-07-04 11:41:00,
2013-07-04 07:57:00,76.1,74.0,30.05,ESE,115,1.0,5.0,92,0.00,,,0.00,227,weatherlink.com 1.10,2013-07-04 11:57:00,
2013-07-04 08:12:00,77.4,75.0,30.05,SE,144,0.0,3.0,91,0.00,,,0.00,290,weatherlink.com 1.10,2013-07-04 12:12:00,
2013-07-04 08:28:00,78.8,75.0,30.05,ESE,107,0.0,5.0,88,0.00,,,0.00,341,weatherlink.com 1.10,2013-07-04 12:28:00,
2013-07-04 08:42:00,80.3,75.0,30.05,ESE,107,2.0,5.0,83,0.00,,,0.00,403,weatherlink.com 1.10,2013-07-04 12:42:00,
2013-07-04 08:58:00,81.6,75.0,30.05,ESE,114,0.0,8.0,79,0.00,,,0.00,413,weatherlink.com 1.10,2013-07-04 12:58:00,
2013-07-04 09:12:00,82.6,74.0,30.06,SE,144,0.0,6.0,76,0.00,,,0.00,487,weatherlink.com 1.10,2013-07-04 13:12:00,
2013-07-04 09:28:00,83.6,74.0,30.06,ESE,105,2.0,7.0,73,0.00,,,0.00,529,weatherlink.com 1.10,2013-07-04 13:28:00,
2013-07-04 09:43:00,84.0,74.0,30.06,ESE,118,0.0,8.0,72,0.00,,,0.00,135,weatherlink.com 1.10,2013-07-04 13:43:00,
2013-07-04 09:58:00,83.8,74.0,30.07,SSE,159,3.0,5.0,72,0.00,,,0.00,381,weatherlink.com 1.10,2013-07-04 13:58:00,
2013-07-04 10:13:00,83.8,73.0,30.07,South,169,1.0,7.0,71,0.00,,,0.00,323,weatherlink.com 1.10,2013-07-04 14:13:00,
2013-07-04 10:28:00,84.0,74.0,30.07,ESE,107,4.0,6.0,71,0.00,,,0.00,230,weatherlink.com 1.10,2013-07-04 14:28:00,
2013-07-04 10:44:00,84.3,74.0,30.07,SE,140,0.0,8.0,70,0.00,,,0.00,227,weatherlink.com 1.10,2013-07-04 14:44:00,
2013-07-04 10:58:00,85.5,74.0,30.07,NE,34,3.0,7.0,69,0.00,,,0.00,171,weatherlink.com 1.10,2013-07-04 14:58:00,
2013-07-04 11:14:00,85.9,74.0,30.07,ESE,118,0.0,6.0,68,0.00,,,0.00,330,weatherlink.com 1.10,2013-07-04 15:14:00,
2013-07-04 11:29:00,87.0,74.0,30.07,SE,134,5.0,7.0,65,0.00,,,0.00,884,weatherlink.com 1.10,2013-07-04 15:29:00,
2013-07-04 11:43:00,87.8,74.0,30.07,ESE,115,3.0,8.0,64,0.00,,,0.00,817,weatherlink.com 1.10,2013-07-04 15:43:00,
2013-07-04 11:59:00,88.0,75.0,30.07,SE,136,1.0,8.0,66,0.00,,,0.00,988,weatherlink.com 1.10,2013-07-04 15:59:00,
2013-07-04 12:14:00,88.2,76.0,30.07,SSE,155,0.0,6.0,67,0.00,,,0.00,761,weatherlink.com 1.10,2013-07-04 16:14:00,
2013-07-04 12:29:00,87.6,74.0,30.06,ESE,119,5.0,8.0,65,0.00,,,0.00,946,weatherlink.com 1.10,2013-07-04 16:29:00,
2013-07-04 12:45:00,87.6,74.0,30.05,SE,129,2.0,14.0,65,0.00,,,0.00,990,weatherlink.com 1.10,2013-07-04 16:45:00,
2013-07-04 12:59:00,88.0,74.0,30.05,East,96,0.0,8.0,63,0.00,,,0.00,1076,weatherlink.com 1.10,2013-07-04 16:59:00,
2013-07-04 13:16:00,88.2,74.0,30.05,SE,128,6.0,15.0,63,0.00,,,0.00,225,weatherlink.com 1.10,2013-07-04 17:16:00,
2013-07-04 13:31:00,87.0,74.0,30.05,SSE,155,0.0,11.0,65,0.00,,,0.00,390,weatherlink.com 1.10,2013-07-04 17:31:00,
2013-07-04 13:45:00,87.0,74.0,30.05,ESE,115,2.0,13.0,65,0.00,,,0.00,621,weatherlink.com 1.10,2013-07-04 17:45:00,
2013-07-04 14:02:00,87.8,74.0,30.05,SE,124,3.0,9.0,64,0.00,,,0.00,947,weatherlink.com 1.10,2013-07-04 18:02:00,
2013-07-04 14:16:00,88.4,74.0,30.04,SE,146,0.0,9.0,62,0.00,,,0.00,1071,weatherlink.com 1.10,2013-07-04 18:16:00,
2013-07-04 14:30:00,88.8,75.0,30.03,SSE,159,0.0,8.0,63,0.00,,,0.00,995,weatherlink.com 1.10,2013-07-04 18:30:00,
2013-07-04 14:46:00,89.0,74.0,30.02,ESE,117,5.0,9.0,62,0.00,,,0.00,1034,weatherlink.com 1.10,2013-07-04 18:46:00,
2013-07-04 15:00:00,88.8,74.0,30.01,WSW,243,1.0,14.0,62,0.00,,,0.00,306,weatherlink.com 1.10,2013-07-04 19:00:00,
2013-07-04 15:16:00,88.6,73.0,30.01,South,178,0.0,13.0,61,0.00,,,0.00,352,weatherlink.com 1.10,2013-07-04 19:16:00,
2013-07-04 15:31:00,87.0,73.0,30.02,SE,126,2.0,11.0,64,0.00,,,0.00,292,weatherlink.com 1.10,2013-07-04 19:31:00,
2013-07-04 15:46:00,86.3,73.0,30.02,SSE,148,3.0,9.0,65,0.00,,,0.00,276,weatherlink.com 1.10,2013-07-04 19:46:00,
2013-07-04 16:00:00,85.9,74.0,30.02,SSE,163,0.0,9.0,67,0.00,,,0.00,394,weatherlink.com 1.10,2013-07-04 20:00:00,
2013-07-04 16:16:00,85.9,74.0,30.02,ESE,114,0.0,8.0,67,0.00,,,0.00,306,weatherlink.com 1.10,2013-07-04 20:16:00,
2013-07-04 16:31:00,85.9,74.0,30.02,SSW,194,0.0,6.0,68,0.00,,,0.00,283,weatherlink.com 1.10,2013-07-04 20:31:00,
2013-07-04 16:46:00,85.3,74.0,30.02,SE,136,0.0,11.0,68,0.00,,,0.00,279,weatherlink.com 1.10,2013-07-04 20:46:00,
2013-07-04 17:02:00,85.1,73.0,30.02,ESE,110,0.0,12.0,68,0.00,,,0.00,202,weatherlink.com 1.10,2013-07-04 21:02:00,
2013-07-04 17:16:00,84.9,74.0,30.02,SE,144,1.0,7.0,69,0.00,,,0.00,185,weatherlink.com 1.10,2013-07-04 21:16:00,
2013-07-04 17:31:00,84.3,74.0,30.02,SE,132,0.0,13.0,70,0.00,,,0.00,179,weatherlink.com 1.10,2013-07-04 21:31:00,
2013-07-04 17:46:00,84.0,74.0,30.02,ESE,123,1.0,7.0,72,0.00,,,0.00,190,weatherlink.com 1.10,2013-07-04 21:46:00,
2013-07-04 18:01:00,83.8,74.0,30.02,East,100,0.0,7.0,72,0.00,,,0.00,144,weatherlink.com 1.10,2013-07-04 22:01:00,
2013-07-04 18:16:00,83.6,74.0,30.02,SE,125,0.0,4.0,73,0.00,,,0.00,93,weatherlink.com 1.10,2013-07-04 22:16:00,
2013-07-04 18:31:00,83.2,74.0,30.02,ESE,113,3.0,8.0,73,0.00,,,0.00,62,weatherlink.com 1.10,2013-07-04 22:31:00,
2013-07-04 18:46:00,82.6,74.0,30.02,SE,132,5.0,8.0,74,0.00,,,0.00,58,weatherlink.com 1.10,2013-07-04 22:46:00,
2013-07-04 19:01:00,82.2,74.0,30.03,SSW,195,0.0,7.0,76,0.00,,,0.00,56,weatherlink.com 1.10,2013-07-04 23:01:00,
2013-07-04 19:16:00,81.8,74.0,30.04,SSE,155,1.0,8.0,77,0.00,,,0.00,47,weatherlink.com 1.10,2013-07-04 23:16:00,
2013-07-04 19:31:00,81.6,74.0,30.05,North,5,0.0,7.0,78,0.00,,,0.00,35,weatherlink.com 1.10,2013-07-04 23:31:00,
2013-07-04 19:46:00,81.4,74.0,30.05,SE,141,0.0,8.0,78,0.00,,,0.00,23,weatherlink.com 1.10,2013-07-04 23:46:00,
2013-07-04 20:01:00,81.2,74.0,30.07,SW,232,3.0,8.0,79,0.00,,,0.00,0,weatherlink.com 1.10,2013-07-05 00:01:00,
2013-07-04 20:16:00,79.4,70.0,30.08,WSW,240,3.0,9.0,73,0.00,,,0.00,0,weatherlink.com 1.10,2013-07-05 00:16:00,
2013-07-04 20:31:00,78.6,70.0,30.09,SW,219,0.0,5.0,74,0.00,,,0.00,0,weatherlink.com 1.10,2013-07-05 00:31:00,
2013-07-04 20:46:00,77.7,70.0,30.09,SW,221,0.0,3.0,78,0.00,,,0.00,0,weatherlink.com 1.10,2013-07-05 00:46:00,
2013-07-04 21:01:00,77.0,70.0,30.09,SW,221,0.0,2.0,80,0.00,,,0.00,0,weatherlink.com 1.10,2013-07-05 01:01:00,
2013-07-04 21:16:00,76.5,71.0,30.09,SW,221,0.0,3.0,82,0.00,,,0.00,0,weatherlink.com 1.10,2013-07-05 01:16:00,
2013-07-04 21:32:00,76.0,71.0,30.09,WSW,238,3.0,6.0,84,0.00,,,0.00,0,weatherlink.com 1.10,2013-07-05 01:32:00,
2013-07-04 21:47:00,75.6,71.0,30.09,WSW,245,0.0,6.0,85,0.00,,,0.00,0,weatherlink.com 1.10,2013-07-05 01:47:00,
2013-07-04 22:17:00,75.3,71.0,30.09,WSW,245,0.0,0.0,86,0.00,,,0.00,0,weatherlink.com 1.10,2013-07-05 02:17:00,
2013-07-04 22:32:00,75.1,71.0,30.10,WSW,245,0.0,0.0,87,0.00,,,0.00,0,weatherlink.com 1.10,2013-07-05 02:32:00,
2013-07-04 22:47:00,74.9,71.0,30.09,WSW,245,0.0,0.0,87,0.00,,,0.00,0,weatherlink.com 1.10,2013-07-05 02:47:00,
2013-07-04 23:02:00,74.9,71.0,30.10,WSW,245,0.0,0.0,88,0.00,,,0.00,0,weatherlink.com 1.10,2013-07-05 03:02:00,
2013-07-04 23:17:00,74.9,71.0,30.09,WSW,245,0.0,1.0,88,0.00,,,0.00,0,weatherlink.com 1.10,2013-07-05 03:17:00,
2013-07-04 23:32:00,74.9,71.0,30.09,WSW,245,0.0,0.0,88,0.00,,,0.00,0,weatherlink.com 1.10,2013-07-05 03:32:00,
2013-07-04 23:47:00,74.7,71.0,30.09,WSW,245,0.0,0.0,88,0.00,,,0.00,0,weatherlink.com 1.10,2013-07-05 03:47:00,